sensor_id;sensor_type;location;lat;lon;timestamp;P1;durP1;ratioP1;P2;durP2;ratioP2
75050;SDS011;63628;47.656;11.310;2023-04-15T00:01:09;1.50;;;0.80;;
75050;SDS011;63628;47.656;11.310;2023-04-15T00:03:37;1.53;;;0.70;;
75050;SDS011;63628;47.656;11.310;2023-04-15T00:06:05;2.47;;;0.63;;
75050;SDS011;63628;47.656;11.310;2023-04-15T00:08:32;1.00;;;0.70;;
75050;SDS011;63628;47.656;11.310;2023-04-15T00:10:59;1.70;;;0.90;;
75050;SDS011;63628;47.656;11.310;2023-04-15T00:13:28;1.40;;;0.95;;
75050;SDS011;63628;47.656;11.310;2023-04-15T00:15:55;0.77;;;0.57;;
75050;SDS011;63628;47.656;11.310;2023-04-15T00:18:22;1.27;;;1.00;;
75050;SDS011;63628;47.656;11.310;2023-04-15T00:20:49;1.10;;;0.60;;
75050;SDS011;63628;47.656;11.310;2023-04-15T00:23:17;1.60;;;0.80;;
75050;SDS011;63628;47.656;11.310;2023-04-15T00:25:44;2.60;;;1.37;;
75050;SDS011;63628;47.656;11.310;2023-04-15T00:28:10;1.17;;;0.77;;
75050;SDS011;63628;47.656;11.310;2023-04-15T00:30:37;2.07;;;0.90;;
75050;SDS011;63628;47.656;11.310;2023-04-15T00:33:04;1.73;;;0.90;;
75050;SDS011;63628;47.656;11.310;2023-04-15T00:35:30;1.17;;;0.80;;
75050;SDS011;63628;47.656;11.310;2023-04-15T00:38:02;0.93;;;0.60;;
75050;SDS011;63628;47.656;11.310;2023-04-15T00:40:31;2.73;;;1.00;;
75050;SDS011;63628;47.656;11.310;2023-04-15T00:42:58;0.70;;;0.60;;
75050;SDS011;63628;47.656;11.310;2023-04-15T00:45:25;0.77;;;0.60;;
75050;SDS011;63628;47.656;11.310;2023-04-15T00:47:53;1.90;;;0.67;;
75050;SDS011;63628;47.656;11.310;2023-04-15T00:50:21;1.73;;;0.77;;
75050;SDS011;63628;47.656;11.310;2023-04-15T00:52:48;0.70;;;0.47;;
75050;SDS011;63628;47.656;11.310;2023-04-15T00:55:14;2.53;;;0.93;;
75050;SDS011;63628;47.656;11.310;2023-04-15T00:57:42;0.53;;;0.40;;
75050;SDS011;63628;47.656;11.310;2023-04-15T01:00:10;1.47;;;0.70;;
75050;SDS011;63628;47.656;11.310;2023-04-15T01:02:37;2.63;;;0.70;;
75050;SDS011;63628;47.656;11.310;2023-04-15T01:05:04;1.10;;;0.67;;
75050;SDS011;63628;47.656;11.310;2023-04-15T01:07:32;1.00;;;0.80;;
75050;SDS011;63628;47.656;11.310;2023-04-15T01:09:59;0.77;;;0.60;;
75050;SDS011;63628;47.656;11.310;2023-04-15T01:12:26;0.80;;;0.70;;
75050;SDS011;63628;47.656;11.310;2023-04-15T01:14:54;1.27;;;0.60;;
75050;SDS011;63628;47.656;11.310;2023-04-15T01:17:22;1.23;;;0.90;;
75050;SDS011;63628;47.656;11.310;2023-04-15T01:19:50;1.47;;;0.70;;
75050;SDS011;63628;47.656;11.310;2023-04-15T01:22:17;1.20;;;0.67;;
75050;SDS011;63628;47.656;11.310;2023-04-15T01:24:44;2.00;;;0.77;;
75050;SDS011;63628;47.656;11.310;2023-04-15T01:27:18;1.30;;;0.70;;
75050;SDS011;63628;47.656;11.310;2023-04-15T01:29:45;1.40;;;0.70;;
75050;SDS011;63628;47.656;11.310;2023-04-15T01:32:12;2.97;;;0.90;;
75050;SDS011;63628;47.656;11.310;2023-04-15T01:34:39;1.60;;;0.80;;
75050;SDS011;63628;47.656;11.310;2023-04-15T01:37:06;0.97;;;0.50;;
75050;SDS011;63628;47.656;11.310;2023-04-15T01:39:32;1.63;;;0.70;;
75050;SDS011;63628;47.656;11.310;2023-04-15T01:41:59;1.87;;;0.73;;
75050;SDS011;63628;47.656;11.310;2023-04-15T01:44:27;1.23;;;0.60;;
75050;SDS011;63628;47.656;11.310;2023-04-15T01:46:54;3.13;;;0.90;;
75050;SDS011;63628;47.656;11.310;2023-04-15T01:49:20;2.77;;;0.77;;
75050;SDS011;63628;47.656;11.310;2023-04-15T01:51:47;1.17;;;0.70;;
75050;SDS011;63628;47.656;11.310;2023-04-15T01:54:14;1.23;;;0.43;;
75050;SDS011;63628;47.656;11.310;2023-04-15T01:56:41;2.13;;;1.00;;
75050;SDS011;63628;47.656;11.310;2023-04-15T01:59:08;1.30;;;0.90;;
75050;SDS011;63628;47.656;11.310;2023-04-15T02:01:36;1.30;;;0.80;;
75050;SDS011;63628;47.656;11.310;2023-04-15T02:04:03;3.30;;;1.47;;
75050;SDS011;63628;47.656;11.310;2023-04-15T02:06:30;0.67;;;0.60;;
75050;SDS011;63628;47.656;11.310;2023-04-15T02:08:56;1.23;;;0.57;;
75050;SDS011;63628;47.656;11.310;2023-04-15T02:11:24;0.83;;;0.57;;
75050;SDS011;63628;47.656;11.310;2023-04-15T02:13:51;1.67;;;0.67;;
75050;SDS011;63628;47.656;11.310;2023-04-15T02:16:18;1.30;;;1.07;;
75050;SDS011;63628;47.656;11.310;2023-04-15T02:18:46;1.13;;;0.67;;
75050;SDS011;63628;47.656;11.310;2023-04-15T02:21:13;0.90;;;0.70;;
75050;SDS011;63628;47.656;11.310;2023-04-15T02:23:40;1.27;;;0.70;;
75050;SDS011;63628;47.656;11.310;2023-04-15T02:26:06;0.93;;;0.60;;
75050;SDS011;63628;47.656;11.310;2023-04-15T02:28:33;1.30;;;0.83;;
75050;SDS011;63628;47.656;11.310;2023-04-15T02:31:00;1.63;;;0.63;;
75050;SDS011;63628;47.656;11.310;2023-04-15T02:33:31;1.27;;;0.70;;
75050;SDS011;63628;47.656;11.310;2023-04-15T02:35:59;0.47;;;0.47;;
75050;SDS011;63628;47.656;11.310;2023-04-15T02:38:26;0.70;;;0.70;;
75050;SDS011;63628;47.656;11.310;2023-04-15T02:40:53;1.27;;;0.80;;
75050;SDS011;63628;47.656;11.310;2023-04-15T02:43:20;1.40;;;0.70;;
75050;SDS011;63628;47.656;11.310;2023-04-15T02:45:46;1.67;;;0.80;;
75050;SDS011;63628;47.656;11.310;2023-04-15T02:48:14;2.20;;;0.67;;
75050;SDS011;63628;47.656;11.310;2023-04-15T02:50:43;1.13;;;0.50;;
75050;SDS011;63628;47.656;11.310;2023-04-15T02:53:11;2.23;;;0.60;;
75050;SDS011;63628;47.656;11.310;2023-04-15T02:55:38;2.13;;;0.70;;
75050;SDS011;63628;47.656;11.310;2023-04-15T02:58:05;1.13;;;0.87;;
75050;SDS011;63628;47.656;11.310;2023-04-15T03:00:32;0.60;;;0.60;;
75050;SDS011;63628;47.656;11.310;2023-04-15T03:03:00;1.03;;;0.67;;
75050;SDS011;63628;47.656;11.310;2023-04-15T03:05:29;1.00;;;0.60;;
75050;SDS011;63628;47.656;11.310;2023-04-15T03:07:56;0.97;;;0.60;;
75050;SDS011;63628;47.656;11.310;2023-04-15T03:10:24;3.67;;;0.60;;
75050;SDS011;63628;47.656;11.310;2023-04-15T03:12:50;1.13;;;0.70;;
75050;SDS011;63628;47.656;11.310;2023-04-15T03:15:17;1.33;;;0.53;;
75050;SDS011;63628;47.656;11.310;2023-04-15T03:17:44;2.30;;;0.87;;
75050;SDS011;63628;47.656;11.310;2023-04-15T03:20:10;0.90;;;0.57;;
75050;SDS011;63628;47.656;11.310;2023-04-15T03:22:37;0.50;;;0.50;;
75050;SDS011;63628;47.656;11.310;2023-04-15T03:25:04;1.00;;;0.53;;
75050;SDS011;63628;47.656;11.310;2023-04-15T03:27:33;1.27;;;0.60;;
75050;SDS011;63628;47.656;11.310;2023-04-15T03:30:02;0.73;;;0.70;;
75050;SDS011;63628;47.656;11.310;2023-04-15T03:32:29;1.97;;;0.70;;
75050;SDS011;63628;47.656;11.310;2023-04-15T03:34:55;1.07;;;0.80;;
75050;SDS011;63628;47.656;11.310;2023-04-15T03:37:22;1.03;;;0.60;;
75050;SDS011;63628;47.656;11.310;2023-04-15T03:39:49;0.63;;;0.43;;
75050;SDS011;63628;47.656;11.310;2023-04-15T03:42:15;1.20;;;0.90;;
75050;SDS011;63628;47.656;11.310;2023-04-15T03:44:43;2.17;;;0.83;;
75050;SDS011;63628;47.656;11.310;2023-04-15T03:47:10;0.70;;;0.50;;
75050;SDS011;63628;47.656;11.310;2023-04-15T03:49:37;1.47;;;0.60;;
75050;SDS011;63628;47.656;11.310;2023-04-15T03:52:03;1.27;;;0.80;;
75050;SDS011;63628;47.656;11.310;2023-04-15T03:54:30;1.00;;;0.50;;
75050;SDS011;63628;47.656;11.310;2023-04-15T03:56:57;1.40;;;0.80;;
75050;SDS011;63628;47.656;11.310;2023-04-15T03:59:24;2.27;;;0.47;;
75050;SDS011;63628;47.656;11.310;2023-04-15T04:01:52;1.70;;;0.50;;
75050;SDS011;63628;47.656;11.310;2023-04-15T04:04:18;0.93;;;0.63;;
75050;SDS011;63628;47.656;11.310;2023-04-15T04:06:45;2.70;;;0.60;;
75050;SDS011;63628;47.656;11.310;2023-04-15T04:09:12;3.53;;;1.57;;
75050;SDS011;63628;47.656;11.310;2023-04-15T04:11:38;1.63;;;0.70;;
75050;SDS011;63628;47.656;11.310;2023-04-15T04:14:05;0.83;;;0.63;;
75050;SDS011;63628;47.656;11.310;2023-04-15T04:16:35;1.25;;;0.70;;
75050;SDS011;63628;47.656;11.310;2023-04-15T04:19:03;1.10;;;0.60;;
75050;SDS011;63628;47.656;11.310;2023-04-15T04:21:30;0.60;;;0.50;;
75050;SDS011;63628;47.656;11.310;2023-04-15T04:23:59;0.85;;;0.45;;
75050;SDS011;63628;47.656;11.310;2023-04-15T04:26:25;2.30;;;1.17;;
75050;SDS011;63628;47.656;11.310;2023-04-15T04:28:52;3.03;;;2.20;;
75050;SDS011;63628;47.656;11.310;2023-04-15T04:31:19;1.63;;;0.90;;
75050;SDS011;63628;47.656;11.310;2023-04-15T04:33:46;2.50;;;0.80;;
75050;SDS011;63628;47.656;11.310;2023-04-15T04:36:14;1.17;;;0.70;;
75050;SDS011;63628;47.656;11.310;2023-04-15T04:38:41;1.40;;;0.70;;
75050;SDS011;63628;47.656;11.310;2023-04-15T04:41:07;1.17;;;0.60;;
75050;SDS011;63628;47.656;11.310;2023-04-15T04:43:34;0.67;;;0.60;;
75050;SDS011;63628;47.656;11.310;2023-04-15T04:46:01;0.70;;;0.40;;
75050;SDS011;63628;47.656;11.310;2023-04-15T04:48:27;1.00;;;0.70;;
75050;SDS011;63628;47.656;11.310;2023-04-15T04:50:54;0.87;;;0.83;;
75050;SDS011;63628;47.656;11.310;2023-04-15T04:53:22;2.10;;;0.70;;
75050;SDS011;63628;47.656;11.310;2023-04-15T04:55:49;1.17;;;0.50;;
75050;SDS011;63628;47.656;11.310;2023-04-15T04:58:16;1.00;;;0.70;;
75050;SDS011;63628;47.656;11.310;2023-04-15T05:00:42;0.73;;;0.50;;
75050;SDS011;63628;47.656;11.310;2023-04-15T05:03:11;1.58;;;0.80;;
75050;SDS011;63628;47.656;11.310;2023-04-15T05:05:38;0.90;;;0.53;;
75050;SDS011;63628;47.656;11.310;2023-04-15T05:08:06;1.07;;;0.60;;
75050;SDS011;63628;47.656;11.310;2023-04-15T05:10:34;0.77;;;0.53;;
75050;SDS011;63628;47.656;11.310;2023-04-15T05:13:01;1.57;;;0.70;;
75050;SDS011;63628;47.656;11.310;2023-04-15T05:15:28;0.70;;;0.57;;
75050;SDS011;63628;47.656;11.310;2023-04-15T05:17:54;0.67;;;0.43;;
75050;SDS011;63628;47.656;11.310;2023-04-15T05:20:21;0.80;;;0.80;;
75050;SDS011;63628;47.656;11.310;2023-04-15T05:22:48;0.63;;;0.43;;
75050;SDS011;63628;47.656;11.310;2023-04-15T05:25:14;2.07;;;0.60;;
75050;SDS011;63628;47.656;11.310;2023-04-15T05:27:43;0.87;;;0.60;;
75050;SDS011;63628;47.656;11.310;2023-04-15T05:30:10;0.70;;;0.50;;
75050;SDS011;63628;47.656;11.310;2023-04-15T05:32:38;2.03;;;0.90;;
75050;SDS011;63628;47.656;11.310;2023-04-15T05:35:06;0.57;;;0.57;;
75050;SDS011;63628;47.656;11.310;2023-04-15T05:37:33;1.20;;;0.60;;
75050;SDS011;63628;47.656;11.310;2023-04-15T05:40:01;0.87;;;0.73;;
75050;SDS011;63628;47.656;11.310;2023-04-15T05:42:28;1.33;;;0.60;;
75050;SDS011;63628;47.656;11.310;2023-04-15T05:44:56;1.50;;;0.60;;
75050;SDS011;63628;47.656;11.310;2023-04-15T05:47:23;1.00;;;0.63;;
75050;SDS011;63628;47.656;11.310;2023-04-15T05:49:50;2.33;;;0.60;;
75050;SDS011;63628;47.656;11.310;2023-04-15T05:52:16;1.10;;;0.70;;
75050;SDS011;63628;47.656;11.310;2023-04-15T05:54:43;0.50;;;0.47;;
75050;SDS011;63628;47.656;11.310;2023-04-15T05:57:10;0.80;;;0.60;;
75050;SDS011;63628;47.656;11.310;2023-04-15T05:59:36;2.20;;;0.70;;
75050;SDS011;63628;47.656;11.310;2023-04-15T06:02:05;1.07;;;0.77;;
75050;SDS011;63628;47.656;11.310;2023-04-15T06:04:32;1.43;;;0.70;;
75050;SDS011;63628;47.656;11.310;2023-04-15T06:06:59;0.77;;;0.47;;
75050;SDS011;63628;47.656;11.310;2023-04-15T06:09:26;1.10;;;0.60;;
75050;SDS011;63628;47.656;11.310;2023-04-15T06:11:54;4.10;;;1.10;;
75050;SDS011;63628;47.656;11.310;2023-04-15T06:14:22;2.03;;;0.77;;
75050;SDS011;63628;47.656;11.310;2023-04-15T06:16:48;2.77;;;0.73;;
75050;SDS011;63628;47.656;11.310;2023-04-15T06:19:16;2.00;;;0.77;;
75050;SDS011;63628;47.656;11.310;2023-04-15T06:21:46;0.93;;;0.60;;
75050;SDS011;63628;47.656;11.310;2023-04-15T06:24:13;1.05;;;0.63;;
75050;SDS011;63628;47.656;11.310;2023-04-15T06:26:39;1.03;;;0.63;;
75050;SDS011;63628;47.656;11.310;2023-04-15T06:29:06;1.03;;;0.50;;
75050;SDS011;63628;47.656;11.310;2023-04-15T06:31:33;1.43;;;0.80;;
75050;SDS011;63628;47.656;11.310;2023-04-15T06:34:00;3.53;;;0.73;;
75050;SDS011;63628;47.656;11.310;2023-04-15T06:36:28;3.07;;;1.30;;
75050;SDS011;63628;47.656;11.310;2023-04-15T06:38:54;6.37;;;2.13;;
75050;SDS011;63628;47.656;11.310;2023-04-15T06:41:22;3.83;;;1.10;;
75050;SDS011;63628;47.656;11.310;2023-04-15T06:43:49;1.57;;;0.67;;
75050;SDS011;63628;47.656;11.310;2023-04-15T06:46:16;0.97;;;0.90;;
75050;SDS011;63628;47.656;11.310;2023-04-15T06:48:43;5.37;;;1.53;;
75050;SDS011;63628;47.656;11.310;2023-04-15T06:51:10;5.07;;;1.20;;
75050;SDS011;63628;47.656;11.310;2023-04-15T06:53:39;1.50;;;0.70;;
75050;SDS011;63628;47.656;11.310;2023-04-15T06:56:07;2.22;;;1.40;;
75050;SDS011;63628;47.656;11.310;2023-04-15T06:58:34;4.23;;;1.57;;
75050;SDS011;63628;47.656;11.310;2023-04-15T07:01:01;3.27;;;1.30;;
75050;SDS011;63628;47.656;11.310;2023-04-15T07:03:28;3.53;;;1.10;;
75050;SDS011;63628;47.656;11.310;2023-04-15T07:05:57;2.58;;;1.10;;
75050;SDS011;63628;47.656;11.310;2023-04-15T07:08:24;3.87;;;1.30;;
75050;SDS011;63628;47.656;11.310;2023-04-15T07:10:53;3.87;;;1.20;;
75050;SDS011;63628;47.656;11.310;2023-04-15T07:13:19;2.60;;;1.30;;
75050;SDS011;63628;47.656;11.310;2023-04-15T07:15:46;3.43;;;1.70;;
75050;SDS011;63628;47.656;11.310;2023-04-15T07:18:13;4.03;;;1.20;;
75050;SDS011;63628;47.656;11.310;2023-04-15T07:20:39;6.63;;;3.97;;
75050;SDS011;63628;47.656;11.310;2023-04-15T07:23:06;7.07;;;3.40;;
75050;SDS011;63628;47.656;11.310;2023-04-15T07:25:33;9.63;;;3.53;;
75050;SDS011;63628;47.656;11.310;2023-04-15T07:28:01;6.33;;;3.10;;
75050;SDS011;63628;47.656;11.310;2023-04-15T07:30:27;7.60;;;2.83;;
75050;SDS011;63628;47.656;11.310;2023-04-15T07:32:54;5.03;;;2.60;;
75050;SDS011;63628;47.656;11.310;2023-04-15T07:35:21;3.83;;;1.53;;
75050;SDS011;63628;47.656;11.310;2023-04-15T07:37:48;4.53;;;1.93;;
75050;SDS011;63628;47.656;11.310;2023-04-15T07:40:15;5.27;;;2.07;;
75050;SDS011;63628;47.656;11.310;2023-04-15T07:42:42;35.37;;;10.57;;
75050;SDS011;63628;47.656;11.310;2023-04-15T07:45:10;6.10;;;2.77;;
75050;SDS011;63628;47.656;11.310;2023-04-15T07:47:38;12.95;;;4.05;;
75050;SDS011;63628;47.656;11.310;2023-04-15T07:50:05;30.67;;;10.03;;
75050;SDS011;63628;47.656;11.310;2023-04-15T07:52:32;12.13;;;4.30;;
75050;SDS011;63628;47.656;11.310;2023-04-15T07:55:04;5.03;;;2.10;;
75050;SDS011;63628;47.656;11.310;2023-04-15T07:57:33;5.18;;;1.40;;
75050;SDS011;63628;47.656;11.310;2023-04-15T08:00:00;2.43;;;1.03;;
75050;SDS011;63628;47.656;11.310;2023-04-15T08:02:30;6.85;;;1.80;;
75050;SDS011;63628;47.656;11.310;2023-04-15T08:04:57;11.50;;;3.20;;
75050;SDS011;63628;47.656;11.310;2023-04-15T08:07:25;3.80;;;1.43;;
75050;SDS011;63628;47.656;11.310;2023-04-15T08:09:51;1.57;;;0.83;;
75050;SDS011;63628;47.656;11.310;2023-04-15T08:12:18;1.27;;;0.67;;
75050;SDS011;63628;47.656;11.310;2023-04-15T08:14:45;1.30;;;0.70;;
75050;SDS011;63628;47.656;11.310;2023-04-15T08:17:12;4.37;;;1.53;;
75050;SDS011;63628;47.656;11.310;2023-04-15T08:19:40;1.33;;;0.80;;
75050;SDS011;63628;47.656;11.310;2023-04-15T08:22:07;2.17;;;1.00;;
75050;SDS011;63628;47.656;11.310;2023-04-15T08:24:43;1.77;;;1.30;;
75050;SDS011;63628;47.656;11.310;2023-04-15T08:27:10;2.33;;;0.90;;
75050;SDS011;63628;47.656;11.310;2023-04-15T08:29:36;5.20;;;1.43;;
75050;SDS011;63628;47.656;11.310;2023-04-15T08:32:04;5.33;;;1.57;;
75050;SDS011;63628;47.656;11.310;2023-04-15T08:34:31;1.00;;;0.63;;
75050;SDS011;63628;47.656;11.310;2023-04-15T08:36:59;3.10;;;1.33;;
75050;SDS011;63628;47.656;11.310;2023-04-15T08:39:26;6.67;;;1.70;;
75050;SDS011;63628;47.656;11.310;2023-04-15T08:41:55;3.50;;;1.57;;
75050;SDS011;63628;47.656;11.310;2023-04-15T08:44:26;2.10;;;1.27;;
75050;SDS011;63628;47.656;11.310;2023-04-15T08:49:22;3.83;;;1.73;;
75050;SDS011;63628;47.656;11.310;2023-04-15T08:54:20;3.30;;;1.30;;
75050;SDS011;63628;47.656;11.310;2023-04-15T08:56:46;3.07;;;1.17;;
75050;SDS011;63628;47.656;11.310;2023-04-15T08:59:14;3.90;;;1.30;;
75050;SDS011;63628;47.656;11.310;2023-04-15T09:01:41;5.03;;;1.10;;
75050;SDS011;63628;47.656;11.310;2023-04-15T09:04:09;3.93;;;1.13;;
75050;SDS011;63628;47.656;11.310;2023-04-15T09:06:38;4.35;;;1.08;;
75050;SDS011;63628;47.656;11.310;2023-04-15T09:09:05;4.57;;;1.33;;
75050;SDS011;63628;47.656;11.310;2023-04-15T09:11:33;5.80;;;1.43;;
75050;SDS011;63628;47.656;11.310;2023-04-15T09:14:00;4.40;;;1.60;;
75050;SDS011;63628;47.656;11.310;2023-04-15T09:16:27;3.40;;;0.70;;
75050;SDS011;63628;47.656;11.310;2023-04-15T09:18:54;4.30;;;0.90;;
75050;SDS011;63628;47.656;11.310;2023-04-15T09:21:20;0.80;;;0.70;;
75050;SDS011;63628;47.656;11.310;2023-04-15T09:23:55;1.33;;;0.80;;
75050;SDS011;63628;47.656;11.310;2023-04-15T09:26:30;4.00;;;0.93;;
75050;SDS011;63628;47.656;11.310;2023-04-15T09:29:02;3.10;;;1.23;;
75050;SDS011;63628;47.656;11.310;2023-04-15T09:31:31;1.27;;;1.10;;
75050;SDS011;63628;47.656;11.310;2023-04-15T09:33:58;2.53;;;1.17;;
75050;SDS011;63628;47.656;11.310;2023-04-15T09:36:25;2.13;;;0.90;;
75050;SDS011;63628;47.656;11.310;2023-04-15T09:38:55;1.80;;;0.98;;
75050;SDS011;63628;47.656;11.310;2023-04-15T09:41:22;2.90;;;1.00;;
75050;SDS011;63628;47.656;11.310;2023-04-15T09:43:50;1.63;;;0.73;;
75050;SDS011;63628;47.656;11.310;2023-04-15T09:46:18;3.77;;;0.87;;
75050;SDS011;63628;47.656;11.310;2023-04-15T09:48:45;2.97;;;0.90;;
75050;SDS011;63628;47.656;11.310;2023-04-15T09:51:12;2.17;;;0.87;;
75050;SDS011;63628;47.656;11.310;2023-04-15T09:53:39;2.70;;;1.50;;
75050;SDS011;63628;47.656;11.310;2023-04-15T09:56:06;4.33;;;1.27;;
75050;SDS011;63628;47.656;11.310;2023-04-15T09:58:34;4.30;;;1.00;;
75050;SDS011;63628;47.656;11.310;2023-04-15T10:01:03;4.20;;;0.97;;
75050;SDS011;63628;47.656;11.310;2023-04-15T10:03:34;5.30;;;1.35;;
75050;SDS011;63628;47.656;11.310;2023-04-15T10:06:04;4.17;;;1.13;;
75050;SDS011;63628;47.656;11.310;2023-04-15T10:08:31;0.93;;;0.60;;
75050;SDS011;63628;47.656;11.310;2023-04-15T10:11:00;1.73;;;0.90;;
75050;SDS011;63628;47.656;11.310;2023-04-15T10:13:29;4.00;;;0.93;;
75050;SDS011;63628;47.656;11.310;2023-04-15T10:16:04;1.90;;;0.80;;
75050;SDS011;63628;47.656;11.310;2023-04-15T10:18:34;3.30;;;1.10;;
75050;SDS011;63628;47.656;11.310;2023-04-15T10:21:05;4.73;;;1.50;;
75050;SDS011;63628;47.656;11.310;2023-04-15T10:23:34;3.03;;;1.05;;
75050;SDS011;63628;47.656;11.310;2023-04-15T10:26:02;4.67;;;1.17;;
75050;SDS011;63628;47.656;11.310;2023-04-15T10:28:30;2.53;;;1.10;;
75050;SDS011;63628;47.656;11.310;2023-04-15T10:30:56;4.83;;;1.47;;
75050;SDS011;63628;47.656;11.310;2023-04-15T10:33:25;1.60;;;0.83;;
75050;SDS011;63628;47.656;11.310;2023-04-15T10:35:54;1.87;;;1.13;;
75050;SDS011;63628;47.656;11.310;2023-04-15T10:38:31;5.57;;;1.43;;
75050;SDS011;63628;47.656;11.310;2023-04-15T10:41:12;6.17;;;2.33;;
75050;SDS011;63628;47.656;11.310;2023-04-15T10:43:51;3.17;;;1.00;;
75050;SDS011;63628;47.656;11.310;2023-04-15T10:46:20;9.50;;;4.13;;
75050;SDS011;63628;47.656;11.310;2023-04-15T10:48:49;3.90;;;2.08;;
75050;SDS011;63628;47.656;11.310;2023-04-15T10:51:26;2.50;;;1.20;;
75050;SDS011;63628;47.656;11.310;2023-04-15T10:53:58;4.57;;;1.40;;
75050;SDS011;63628;47.656;11.310;2023-04-15T10:56:26;2.63;;;1.30;;
75050;SDS011;63628;47.656;11.310;2023-04-15T10:58:54;3.13;;;1.63;;
75050;SDS011;63628;47.656;11.310;2023-04-15T11:01:20;3.37;;;1.10;;
75050;SDS011;63628;47.656;11.310;2023-04-15T11:06:17;2.03;;;1.47;;
75050;SDS011;63628;47.656;11.310;2023-04-15T11:08:54;2.93;;;1.50;;
75050;SDS011;63628;47.656;11.310;2023-04-15T11:14:23;2.77;;;1.40;;
75050;SDS011;63628;47.656;11.310;2023-04-15T11:16:50;5.90;;;1.63;;
75050;SDS011;63628;47.656;11.310;2023-04-15T11:19:17;4.43;;;1.80;;
75050;SDS011;63628;47.656;11.310;2023-04-15T11:21:44;7.73;;;2.23;;
75050;SDS011;63628;47.656;11.310;2023-04-15T11:24:12;4.07;;;1.90;;
75050;SDS011;63628;47.656;11.310;2023-04-15T11:26:56;6.60;;;2.77;;
75050;SDS011;63628;47.656;11.310;2023-04-15T11:29:27;5.30;;;1.97;;
75050;SDS011;63628;47.656;11.310;2023-04-15T11:32:00;3.07;;;1.50;;
75050;SDS011;63628;47.656;11.310;2023-04-15T11:34:29;3.13;;;1.67;;
75050;SDS011;63628;47.656;11.310;2023-04-15T11:36:59;7.57;;;2.13;;
75050;SDS011;63628;47.656;11.310;2023-04-15T11:39:27;6.10;;;1.87;;
75050;SDS011;63628;47.656;11.310;2023-04-15T11:41:54;5.67;;;2.43;;
75050;SDS011;63628;47.656;11.310;2023-04-15T11:44:21;4.37;;;1.63;;
75050;SDS011;63628;47.656;11.310;2023-04-15T11:46:47;5.73;;;2.07;;
75050;SDS011;63628;47.656;11.310;2023-04-15T11:49:24;4.13;;;2.43;;
75050;SDS011;63628;47.656;11.310;2023-04-15T11:51:52;5.27;;;2.10;;
75050;SDS011;63628;47.656;11.310;2023-04-15T11:54:19;6.17;;;2.50;;
75050;SDS011;63628;47.656;11.310;2023-04-15T11:56:50;8.00;;;2.30;;
75050;SDS011;63628;47.656;11.310;2023-04-15T11:59:17;4.27;;;2.20;;
75050;SDS011;63628;47.656;11.310;2023-04-15T12:01:44;4.57;;;2.30;;
75050;SDS011;63628;47.656;11.310;2023-04-15T12:04:13;9.83;;;3.67;;
75050;SDS011;63628;47.656;11.310;2023-04-15T12:06:41;9.10;;;2.90;;
75050;SDS011;63628;47.656;11.310;2023-04-15T12:09:09;3.87;;;2.30;;
75050;SDS011;63628;47.656;11.310;2023-04-15T12:11:38;5.30;;;2.33;;
75050;SDS011;63628;47.656;11.310;2023-04-15T12:14:21;6.67;;;2.67;;
75050;SDS011;63628;47.656;11.310;2023-04-15T12:16:51;4.87;;;2.40;;
75050;SDS011;63628;47.656;11.310;2023-04-15T12:19:21;6.73;;;2.50;;
75050;SDS011;63628;47.656;11.310;2023-04-15T12:21:49;3.13;;;2.60;;
75050;SDS011;63628;47.656;11.310;2023-04-15T12:24:18;5.20;;;2.90;;
75050;SDS011;63628;47.656;11.310;2023-04-15T12:26:47;4.32;;;2.50;;
75050;SDS011;63628;47.656;11.310;2023-04-15T12:29:15;5.67;;;2.50;;
75050;SDS011;63628;47.656;11.310;2023-04-15T12:31:48;13.03;;;2.70;;
75050;SDS011;63628;47.656;11.310;2023-04-15T12:34:24;4.37;;;2.20;;
75050;SDS011;63628;47.656;11.310;2023-04-15T12:36:53;4.70;;;2.60;;
75050;SDS011;63628;47.656;11.310;2023-04-15T12:39:20;8.50;;;2.60;;
75050;SDS011;63628;47.656;11.310;2023-04-15T12:41:48;6.73;;;2.83;;
75050;SDS011;63628;47.656;11.310;2023-04-15T12:44:14;6.80;;;3.00;;
75050;SDS011;63628;47.656;11.310;2023-04-15T12:46:41;7.67;;;3.07;;
75050;SDS011;63628;47.656;11.310;2023-04-15T12:49:09;6.93;;;2.70;;
75050;SDS011;63628;47.656;11.310;2023-04-15T12:51:36;7.90;;;2.70;;
75050;SDS011;63628;47.656;11.310;2023-04-15T12:54:03;3.97;;;2.50;;
75050;SDS011;63628;47.656;11.310;2023-04-15T12:56:30;6.83;;;3.03;;
75050;SDS011;63628;47.656;11.310;2023-04-15T12:58:56;4.93;;;2.30;;
75050;SDS011;63628;47.656;11.310;2023-04-15T13:01:23;13.53;;;4.50;;
75050;SDS011;63628;47.656;11.310;2023-04-15T13:03:50;5.30;;;2.90;;
75050;SDS011;63628;47.656;11.310;2023-04-15T13:06:18;4.80;;;2.53;;
75050;SDS011;63628;47.656;11.310;2023-04-15T13:08:45;5.23;;;2.53;;
75050;SDS011;63628;47.656;11.310;2023-04-15T13:11:23;4.33;;;2.30;;
75050;SDS011;63628;47.656;11.310;2023-04-15T13:13:50;3.90;;;2.43;;
75050;SDS011;63628;47.656;11.310;2023-04-15T13:16:19;8.02;;;2.25;;
75050;SDS011;63628;47.656;11.310;2023-04-15T13:18:47;4.40;;;2.50;;
75050;SDS011;63628;47.656;11.310;2023-04-15T13:21:13;8.27;;;2.80;;
75050;SDS011;63628;47.656;11.310;2023-04-15T13:23:42;5.90;;;2.93;;
75050;SDS011;63628;47.656;11.310;2023-04-15T13:26:08;4.73;;;2.47;;
75050;SDS011;63628;47.656;11.310;2023-04-15T13:28:35;5.23;;;2.67;;
75050;SDS011;63628;47.656;11.310;2023-04-15T13:31:02;4.90;;;2.53;;
75050;SDS011;63628;47.656;11.310;2023-04-15T13:33:29;7.17;;;2.97;;
75050;SDS011;63628;47.656;11.310;2023-04-15T13:35:56;5.03;;;2.37;;
75050;SDS011;63628;47.656;11.310;2023-04-15T13:38:23;6.70;;;3.60;;
75050;SDS011;63628;47.656;11.310;2023-04-15T13:40:52;5.33;;;3.13;;
75050;SDS011;63628;47.656;11.310;2023-04-15T13:43:18;4.73;;;3.33;;
75050;SDS011;63628;47.656;11.310;2023-04-15T13:45:46;4.63;;;2.83;;
75050;SDS011;63628;47.656;11.310;2023-04-15T13:48:13;5.60;;;2.80;;
75050;SDS011;63628;47.656;11.310;2023-04-15T13:50:40;6.37;;;3.10;;
75050;SDS011;63628;47.656;11.310;2023-04-15T13:53:10;5.27;;;2.90;;
75050;SDS011;63628;47.656;11.310;2023-04-15T13:55:37;6.23;;;3.60;;
75050;SDS011;63628;47.656;11.310;2023-04-15T13:58:08;8.57;;;3.10;;
75050;SDS011;63628;47.656;11.310;2023-04-15T14:00:35;4.73;;;2.87;;
75050;SDS011;63628;47.656;11.310;2023-04-15T14:03:02;4.20;;;2.73;;
75050;SDS011;63628;47.656;11.310;2023-04-15T14:05:29;4.33;;;2.53;;
75050;SDS011;63628;47.656;11.310;2023-04-15T14:07:56;4.87;;;2.57;;
75050;SDS011;63628;47.656;11.310;2023-04-15T14:10:22;4.37;;;2.70;;
75050;SDS011;63628;47.656;11.310;2023-04-15T14:12:49;5.90;;;3.20;;
75050;SDS011;63628;47.656;11.310;2023-04-15T14:15:17;4.53;;;2.30;;
75050;SDS011;63628;47.656;11.310;2023-04-15T14:17:44;4.73;;;2.70;;
75050;SDS011;63628;47.656;11.310;2023-04-15T14:20:11;5.37;;;3.60;;
75050;SDS011;63628;47.656;11.310;2023-04-15T14:22:41;8.37;;;3.37;;
75050;SDS011;63628;47.656;11.310;2023-04-15T14:25:08;4.60;;;2.90;;
75050;SDS011;63628;47.656;11.310;2023-04-15T14:27:42;4.60;;;2.73;;
75050;SDS011;63628;47.656;11.310;2023-04-15T14:30:09;7.40;;;3.67;;
75050;SDS011;63628;47.656;11.310;2023-04-15T14:32:38;4.43;;;2.87;;
75050;SDS011;63628;47.656;11.310;2023-04-15T14:35:05;6.53;;;3.20;;
75050;SDS011;63628;47.656;11.310;2023-04-15T14:37:32;5.77;;;2.80;;
75050;SDS011;63628;47.656;11.310;2023-04-15T14:39:58;4.53;;;2.73;;
75050;SDS011;63628;47.656;11.310;2023-04-15T14:42:25;6.87;;;2.77;;
75050;SDS011;63628;47.656;11.310;2023-04-15T14:44:52;10.60;;;7.80;;
75050;SDS011;63628;47.656;11.310;2023-04-15T14:47:18;9.80;;;5.40;;